Latest Weather Observations for Lake Grace

IDW60801

Issued at 8:04 am WST Thursday 23 February 2017 (issued every 30 minutes, with the page automatically refreshed every 10 minutes)

About weather observations | Map of weather stations | Latest weather observations for WA | Other Formats
Station Details ID: 010911 Name: LAKE GRACE Lat: -33.10 Lon: 118.46 Height: 286.0 m
Data from the previous 72 hours. | See also: Recent months at Lake Grace
Date/Time
WST
Temp
°C
App
Temp
°C
Dew
Point
°C
Rel
Hum
%
Delta-T
°C
Wind Press
QNH
hPa
Press
MSL
hPa
Rain since
9am
mm
Dir  Spd
km/h
Gust
km/h
Spd
kts
Gust
kts
23/08:00am 16.8 15.6 12.7 77 2.3 E 11 15 6 8 1024.0 1022.8 0.0
23/07:30am 15.8 14.8 13.3 85 1.4 ENE 11 19 6 10 1023.7 1022.4 0.0
23/07:00am 14.7 13.2 13.2 91 0.8 E 13 19 7 10 1023.6 1022.3 0.0
23/06:30am 13.5 12.6 12.6 94 0.5 SE 9 13 5 7 1023.4 1022.1 0.0
23/06:00am 13.1 12.4 12.0 93 0.6 SE 7 11 4 6 1023.2 1021.9 0.0
23/05:30am 13.3 11.9 12.2 93 0.6 SE 11 15 6 8 1023.0 1021.7 0.0
23/05:00am 13.6 12.7 12.5 93 0.6 SE 9 15 5 8 1022.7 1021.4 0.0
23/04:30am 13.3 12.3 12.2 93 0.6 SSE 9 11 5 6 1022.3 1021.0 0.0
23/04:00am 13.6 13.0 12.3 92 0.7 SSE 7 11 4 6 1022.1 1020.8 0.0
23/03:30am 13.6 13.2 12.3 92 0.7 S 6 7 3 4 1022.0 1020.7 0.0
23/03:00am 13.7 12.7 12.4 92 0.7 SE 9 13 5 7 1021.7 1020.4 0.0
23/02:30am 13.8 12.8 12.4 91 0.8 SE 9 15 5 8 1021.4 1020.1 0.0
23/02:00am 13.9 12.5 12.3 90 0.9 SE 11 15 6 8 1021.3 1020.0 0.0
23/01:30am 14.3 13.0 12.5 89 1.0 ESE 11 17 6 9 1021.2 1019.9 0.0
23/01:00am 14.5 12.8 12.4 87 1.2 ESE 13 19 7 10 1021.0 1019.7 0.0
23/12:30am 14.7 13.0 12.4 86 1.3 E 13 20 7 11 1021.1 1019.8 0.0
23/12:00am 14.9 13.1 12.2 84 1.5 E 13 20 7 11 1021.2 1019.9 0.0
 
Date/Time
WST
Temp
°C
App
Temp
°C
Dew
Point
°C
Rel
Hum
%
Delta-T
°C
Wind Press
QNH
hPa
Press
MSL
hPa
Rain since
9am
mm
Dir  Spd
km/h
Gust
km/h
Spd
kts
Gust
kts
22/11:30pm 15.2 13.0 12.0 81 1.8 ESE 15 20 8 11 1021.3 1020.0 0.0
22/11:00pm 15.6 13.3 10.6 72 2.7 SE 13 20 7 11 1021.5 1020.2 0.0
22/10:30pm 14.6 13.9 10.2 75 2.3 NNW 4 6 2 3 1021.4 1020.1 0.0
22/10:00pm 15.5 15.3 10.3 71 2.8 NE 2 7 1 4 1021.7 1020.4 0.0
22/09:30pm 15.9 16.0 10.2 69 3.0 CALM 0 0 0 0 1021.7 1020.4 0.0
22/09:00pm 16.8 17.0 10.4 66 3.4 CALM 0 0 0 0 1021.6 1020.3 0.0
22/08:30pm 17.5 17.7 10.4 63 3.8 CALM 0 0 0 0 1021.4 1020.1 0.0
22/08:00pm 18.3 18.5 10.4 60 4.3 CALM 0 0 0 0 1021.2 1019.9 0.0
22/07:30pm 18.9 18.9 9.9 56 4.9 CALM 0 0 0 0 1020.9 1019.5 0.0
22/07:00pm 20.1 20.1 9.7 51 5.6 CALM 0 0 0 0 1020.6 1019.2 0.0
22/06:30pm 21.0 19.8 9.6 48 6.2 S 6 7 3 4 1020.2 1018.9 0.0
22/06:00pm 21.3 19.5 9.5 47 6.4 SSW 9 13 5 7 1020.1 1018.8 0.0
22/05:30pm 21.4 19.9 9.3 46 6.6 SSW 7 15 4 8 1019.9 1018.6 0.0
22/05:00pm 21.6 19.4 9.2 45 6.7 SW 11 17 6 9 1019.9 1018.6 0.0
22/04:30pm 21.4 19.1 9.0 45 6.7 SSW 11 20 6 11 1019.7 1018.4 0.0
22/04:00pm 21.4 18.4 9.3 46 6.5 SSW 15 24 8 13 1019.8 1018.5 0.0
22/03:30pm 21.2 18.5 9.1 46 6.5 SSW 13 20 7 11 1019.8 1018.5 0.0
22/03:00pm 21.1 18.1 9.4 47 6.3 SW 15 26 8 14 1020.0 1018.7 0.0
22/02:30pm 20.9 18.0 9.8 49 6.0 S 15 24 8 13 1020.1 1018.8 0.0
22/02:00pm 20.5 17.6 9.7 50 5.8 SW 15 22 8 12 1020.2 1018.9 0.0
22/01:30pm 19.7 16.7 9.3 51 5.6 SSW 15 26 8 14 1020.6 1019.2 0.0
22/01:00pm 19.7 18.3 9.6 52 5.4 S 7 11 4 6 1020.9 1019.5 0.0
22/12:30pm 18.7 16.5 9.2 54 5.1 SW 11 22 6 12 1021.0 1019.7 0.0
22/12:00pm 18.0 16.0 8.8 55 4.8 SSW 9 15 5 8 1021.0 1019.7 0.0
22/11:30am 17.3 15.8 9.0 58 4.4 WNW 7 19 4 10 1021.2 1019.9 0.0
22/11:00am 16.4 14.9 9.1 62 3.8 SSW 7 17 4 9 1021.4 1020.1 0.0
22/10:30am 15.6 13.6 8.8 64 3.5 WSW 9 13 5 7 1021.7 1020.4 0.0
22/10:00am 14.6 12.2 8.5 67 3.1 SW 11 17 6 9 1021.7 1020.4 0.0
22/09:30am 14.2 11.8 8.6 69 2.9 S 11 15 6 8 1021.6 1020.3 0.0
22/09:00am 14.0 11.2 8.6 70 2.7 SW 13 19 7 10 1021.5 1020.2 0.0
22/08:30am 14.1 11.8 8.9 71 2.7 SSW 11 20 6 11 1021.3 1020.0 0.0
22/08:00am 13.6 11.2 8.7 72 2.5 SW 11 17 6 9 1021.1 1019.8 0.0
22/07:30am 13.3 11.2 8.4 72 2.5 SW 9 17 5 9 1020.7 1019.3 0.0
22/07:00am 12.9 10.8 8.2 73 2.4 SW 9 15 5 8 1020.0 1018.7 0.0
22/06:30am 11.9 10.1 7.8 76 2.0 SW 7 11 4 6 1019.7 1018.4 0.0
22/06:00am 11.2 9.5 7.5 78 1.8 SW 6 9 3 5 1019.6 1018.3 0.0
22/05:30am 10.4 8.6 7.1 80 1.6 SW 6 7 3 4 1019.5 1018.2 0.0
22/05:00am 10.3 8.4 6.8 79 1.7 WSW 6 9 3 5 1019.1 1017.8 0.0
22/04:30am 10.2 8.3 6.5 78 1.8 W 6 9 3 5 1018.8 1017.5 0.0
22/04:00am 10.2 8.3 6.5 78 1.8 NW 6 7 3 4 1018.2 1016.9 0.0
22/03:30am 10.7 9.1 6.5 75 2.0 WSW 4 9 2 5 1018.0 1016.7 0.0
22/03:00am 11.1 9.2 6.5 73 2.2 SW 6 7 3 4 1017.9 1016.6 0.0
22/02:30am 11.3 9.1 6.2 71 2.4 SW 7 11 4 6 1017.7 1016.3 0.0
22/02:00am 11.7 9.2 6.4 70 2.5 SW 9 17 5 9 1017.8 1016.4 0.0
22/01:30am 11.8 8.5 6.3 69 2.6 SSW 13 19 7 10 1017.7 1016.3 0.0
22/01:00am 11.8 8.4 6.1 68 2.7 SSW 13 19 7 10 1017.5 1016.1 0.0
22/12:30am 12.1 8.7 5.9 66 3.0 SSW 13 19 7 10 1017.7 1016.3 0.0
22/12:00am 12.3 9.3 5.9 65 3.0 SSW 11 19 6 10 1017.6 1016.2 0.0
 
Date/Time
WST
Temp
°C
App
Temp
°C
Dew
Point
°C
Rel
Hum
%
Delta-T
°C
Wind Press
QNH
hPa
Press
MSL
hPa
Rain since
9am
mm
Dir  Spd
km/h
Gust
km/h
Spd
kts
Gust
kts
21/11:30pm 12.9 9.5 6.0 63 3.3 SSW 13 19 7 10 1017.7 1016.3 0.0
21/11:00pm 12.8 10.2 5.9 63 3.3 SSW 9 13 5 7 1017.8 1016.4 0.0
21/10:30pm 13.4 10.4 5.8 60 3.6 SSW 11 20 6 11 1017.6 1016.2 0.0
21/10:00pm 14.0 10.2 5.6 57 4.0 SSW 15 20 8 11 1017.7 1016.3 0.0
21/09:30pm 14.3 10.4 5.4 55 4.3 SSW 15 24 8 13 1017.7 1016.3 0.0
21/09:00pm 14.7 11.2 5.5 54 4.4 SSW 13 22 7 12 1017.5 1016.1 0.0
21/08:30pm 15.3 11.3 5.0 50 4.9 SSW 15 20 8 11 1017.3 1015.9 0.0
21/08:00pm 16.1 11.7 4.8 47 5.4 SW 17 24 9 13 1016.6 1015.3 0.0
21/07:30pm 16.6 12.2 4.6 45 5.7 SW 17 26 9 14 1016.4 1015.1 0.0
21/07:00pm 17.2 11.7 3.8 41 6.3 SW 22 39 12 21 1015.9 1014.6 0.0
21/06:30pm 17.7 11.7 3.6 39 6.7 SW 24 39 13 21 1015.3 1014.0 0.0
21/06:00pm 18.6 13.2 4.4 39 6.9 SW 22 37 12 20 1014.6 1013.2 0.0
21/05:30pm 19.3 13.1 4.3 37 7.3 WSW 26 43 14 23 1014.0 1012.6 0.0
21/05:00pm 19.6 13.1 4.5 37 7.4 WSW 28 52 15 28 1013.6 1012.2 0.0
21/04:30pm 19.6 13.1 4.9 38 7.2 WSW 28 46 15 25 1013.4 1012.0 0.0
21/04:00pm 19.5 12.3 3.2 34 7.8 WSW 30 57 16 31 1013.0 1011.7 0.0
21/03:30pm 20.1 12.8 5.4 38 7.3 SW 33 57 18 31 1012.6 1011.3 0.0
21/03:04pm 20.2 12.5 2.5 31 8.4 WSW 32 50 17 27 1012.2 1010.9 0.0
21/03:00pm 20.2 12.6 3.0 32 8.2 WSW 32 48 17 26 1012.2 1010.9 0.0
21/02:33pm 19.5 12.6 4.8 38 7.2 SW 30 48 16 26 1012.1 1010.8 0.0
21/02:30pm 19.8 13.5 5.5 39 7.1 SW 28 43 15 23 1012.1 1010.8 0.0
21/02:01pm 20.2 13.5 5.4 38 7.4 WSW 30 48 16 26 1012.0 1010.7 0.0
21/02:00pm 19.9 12.7 4.8 37 7.4 WSW 32 48 17 26 1012.0 1010.7 0.0
21/01:30pm 19.5 12.7 5.2 39 7.1 WSW 30 50 16 27 1011.9 1010.6 0.0
21/01:00pm 19.8 13.0 5.1 38 7.3 WSW 30 50 16 27 1011.7 1010.4 0.0
21/12:31pm 18.5 12.2 5.7 43 6.4 WSW 28 46 15 25 1011.6 1010.2 0.0
21/12:30pm 18.8 12.9 6.0 43 6.4 WSW 26 46 14 25 1011.6 1010.2 0.0
21/12:24pm 18.1 11.8 5.7 44 6.1 WSW 28 46 15 25 1011.6 1010.2 0.0
21/12:00pm 18.5 12.6 5.7 43 6.4 SW 26 41 14 22 1011.6 1010.2 0.0
21/11:30am 18.6 11.3 4.4 39 6.9 WSW 32 50 17 27 1011.8 1010.5 0.0
21/11:00am 18.1 11.1 6.0 45 6.0 WSW 32 52 17 28 1011.9 1010.6 0.0
21/10:44am 18.3 12.1 6.2 45 6.1 WSW 28 46 15 25 1011.8 1010.5 0.0
21/10:30am 17.0 10.9 6.5 50 5.2 SW 28 44 15 24 1011.9 1010.6 0.0
21/10:00am 16.8 10.5 7.2 53 4.9 WSW 30 48 16 26 1011.6 1010.2 0.0
21/09:40am 16.3 10.5 8.0 58 4.3 WSW 28 46 15 25 1011.7 1010.4 0.0
21/09:30am 16.0 10.7 8.5 61 3.9 WSW 26 43 14 23 1011.6 1010.2 0.0
21/09:00am 14.7 10.5 9.7 72 2.6 WSW 22 41 12 22 1011.4 1010.0 0.0
21/08:30am 13.3 7.9 10.8 85 1.3 WSW 30 54 16 29 1011.1 1009.7 0.0
21/08:22am 13.6 8.5 10.6 82 1.6 WSW 28 54 15 29 1010.9 1009.5 0.0
21/08:00am 14.8 11.7 12.1 84 1.5 W 20 33 11 18 1010.5 1009.1 0.0
21/07:30am 15.3 10.6 10.7 74 2.5 W 26 41 14 22 1009.9 1008.5 0.0
21/07:00am 15.1 11.5 9.9 71 2.8 WNW 19 30 10 16 1009.6 1008.2 0.0
21/06:30am 14.7 11.5 9.9 73 2.5 WNW 17 24 9 13 1009.6 1008.2 0.0
21/06:00am 14.3 11.9 9.9 75 2.3 WNW 13 17 7 9 1009.4 1008.1 0.0
21/05:30am 14.4 12.0 10.0 75 2.3 W 13 19 7 10 1009.0 1007.7 0.0
21/05:00am 14.8 11.7 10.4 75 2.3 W 17 24 9 13 1008.9 1007.6 0.0
21/04:30am 15.0 12.7 10.4 74 2.5 W 13 19 7 10 1008.7 1007.4 0.0
21/04:00am 15.7 12.9 11.3 75 2.4 WSW 17 28 9 15 1008.6 1007.3 0.0
21/03:30am 16.7 15.4 13.8 83 1.7 WSW 13 22 7 12 1008.6 1007.3 0.0
21/03:00am 16.7 15.9 14.0 84 1.6 WSW 11 15 6 8 1008.7 1007.4 0.0
21/02:30am 16.5 16.6 14.5 88 1.2 SSW 7 9 4 5 1009.1 1007.8 0.0
21/02:00am 16.1 16.3 14.3 89 1.0 SSE 6 11 3 6 1009.3 1008.0 0.0
21/01:30am 15.9 15.5 14.1 89 1.0 SE 9 11 5 6 1009.2 1007.9 0.0
21/01:00am 16.1 14.9 13.9 87 1.3 S 13 19 7 10 1009.6 1008.2 0.0
21/12:30am 17.3 15.1 13.4 78 2.2 S 17 22 9 12 1009.8 1008.4 0.0
21/12:00am 17.4 15.7 13.5 78 2.2 SSE 15 24 8 13 1009.3 1008.0 0.0
 
Date/Time
WST
Temp
°C
App
Temp
°C
Dew
Point
°C
Rel
Hum
%
Delta-T
°C
Wind Press
QNH
hPa
Press
MSL
hPa
Rain since
9am
mm
Dir  Spd
km/h
Gust
km/h
Spd
kts
Gust
kts
20/11:30pm 17.6 16.1 14.1 80 2.0 S 15 24 8 13 1009.9 1008.5 0.0
20/11:00pm 17.4 15.8 13.9 80 2.0 S 15 22 8 12 1010.0 1008.6 0.0
20/10:30pm 17.9 16.6 13.8 77 2.4 SSE 13 19 7 10 1009.9 1008.5 0.0
20/10:00pm 19.2 16.7 14.0 72 3.0 SE 20 33 11 18 1009.9 1008.5 0.0
20/09:30pm 22.7 21.5 15.0 61 4.6 SSE 15 32 8 17 1009.3 1008.0 0.0
20/09:00pm 25.4 26.2 12.6 45 7.5 CALM 0 0 0 0 1009.1 1007.8 0.0
20/08:30pm 25.4 25.0 12.9 45 7.3 S 7 11 4 6 1009.3 1008.0 0.0
20/08:00pm 25.6 24.8 12.8 45 7.5 S 9 15 5 8 1009.2 1007.9 0.0
20/07:30pm 26.5 25.9 12.2 41 8.3 SW 7 13 4 7 1008.9 1007.6 0.0
20/07:00pm 26.8 25.6 11.7 39 8.8 SW 9 13 5 7 1008.6 1007.3 0.0
20/06:30pm 26.9 25.9 12.2 40 8.6 SW 9 15 5 8 1008.4 1007.0 0.0
20/06:00pm 26.5 24.8 12.5 41 8.2 SSW 13 17 7 9 1008.1 1006.7 0.0
20/05:30pm 26.1 24.3 13.2 44 7.6 S 15 22 8 12 1008.4 1007.0 0.0
20/05:00pm 27.0 24.3 13.4 43 8.1 SSW 20 30 11 16 1008.4 1007.0 0.0
20/04:30pm 28.9 26.9 12.8 37 9.6 SSW 15 24 8 13 1008.3 1006.9 0.0
20/04:00pm 28.9 26.3 13.2 38 9.4 SW 19 32 10 17 1008.5 1007.1 0.0
20/03:30pm 29.7 28.8 12.6 35 10.2 WSW 9 22 5 12 1008.9 1007.6 0.0
20/03:00pm 28.9 28.4 12.8 37 9.6 SW 7 15 4 8 1009.2 1007.9 0.0
20/02:30pm 28.3 27.5 13.0 39 9.1 W 9 13 5 7 1009.6 1008.2 0.0
20/02:00pm 27.1 26.8 13.4 42 8.2 SSE 7 15 4 8 1010.4 1009.0 0.0
20/01:30pm 26.6 25.3 12.6 42 8.2 S 11 20 6 11 1010.9 1009.5 0.0
20/01:00pm 26.2 25.5 13.3 45 7.7 SW 9 17 5 9 1011.3 1009.9 0.0
20/12:30pm 25.1 23.9 12.7 46 7.3 SW 11 19 6 10 1011.5 1010.1 0.0
20/12:00pm 24.9 24.3 13.5 49 6.8 SSW 9 13 5 7 1011.9 1010.6 0.0
20/11:30am 24.0 23.0 14.7 56 5.6 SW 13 19 7 10 1012.4 1011.1 0.0
20/11:00am 23.4 22.3 15.2 60 5.0 SSW 15 22 8 12 1012.7 1011.4 0.0
20/10:30am 23.5 23.2 15.5 60 4.9 S 11 19 6 10 1012.9 1011.6 0.0
20/10:00am 22.5 21.3 15.1 63 4.5 S 15 24 8 13 1012.9 1011.6 0.0
20/09:30am 21.9 20.3 15.0 65 4.1 S 17 28 9 15 1013.2 1011.8 0.0
20/09:00am 21.8 20.3 15.4 67 3.9 SSW 17 30 9 16 1013.0 1011.7 0.0
20/08:30am 21.6 20.1 15.4 68 3.7 S 17 24 9 13 1012.9 1011.6 0.0

Other Formats:

Comma delimited format used in spreadsheet applications
http://www.bom.gov.au/fwo/IDW60801/IDW60801.95637.axf

JavaScript Object Notation format (JSON) in row-major order
http://www.bom.gov.au/fwo/IDW60801/IDW60801.95637.json